Impacts METAR Board INFO
IDs:

KDCA - Washington/National, VA, US

Updated at: 0355 UTC 19 Feb 2018
Potential Impact None Slight Moderate High
Time18/15Z 18/16Z 18/17Z 18/18Z 18/19Z 18/20Z 18/21Z 18/22Z 18/23Z 19/00Z 19/01Z 19/02Z 19/03Z
VIS10 10 10 10 10 10 10 10 10 10 10 10 10
CIG50 -- -- -- -- -- 250 250 250 250 250 250 250
CoverOVCSCTSCTSCTFEWSCTBKNBKNBKNBKNBKNBKNBKN
FltCatVFRVFRVFRVFRVFRVFRVFRVFRVFRVFRVFRVFRVFR
WX--------------------------
WDir230340340300107070602070120130170
WSpd4 8 7 7 7 3 4 4 4 4 8 5 4
WGst-- 15 -- 15 -- -- -- -- -- -- -- -- --
Raw hourly METARs
KDCA 181452Z 23004KT 10SM OVC050 04/02 A3039 RMK AO2 SLP290 T00440022 51047
KDCA 181552Z 34008G15KT 10SM SCT050 08/02 A3041 RMK AO2 SLP296 T00830017
KDCA 181652Z 34007KT 10SM SCT050 SCT120 08/M01 A3043 RMK AO2 SLP303 T00831006
KDCA 181752Z 30007G15KT 10SM SCT045 08/M02 A3043 RMK AO2 SLP305 T00831017 10094 20006 51015
KDCA 181852Z 01007KT 10SM FEW046 11/M01 A3040 RMK AO2 SLP295 T01061006
KDCA 181952Z 07003KT 10SM FEW045 SCT250 10/M01 A3040 RMK AO2 SLP295 T01001011
KDCA 182052Z 07004KT 10SM FEW050 BKN250 11/M01 A3042 RMK AO2 SLP300 T01061011 55005
KDCA 182152Z 06004KT 10SM FEW060 BKN250 10/01 A3042 RMK AO2 SLP302 T01000006
KDCA 182252Z 02004KT 10SM BKN250 08/M01 A3043 RMK AO2 SLP304 T00831006
KDCA 182352Z 07004KT 10SM BKN250 08/01 A3045 RMK AO2 SLP311 T00780006 10106 20078 53010
KDCA 190052Z 12008KT 10SM BKN250 06/01 A3045 RMK AO2 SLP310 T00610006
KDCA 190152Z 13005KT 10SM BKN250 06/00 A3047 RMK AO2 SLP318 T00610000
KDCA 190252Z 17004KT 10SM BKN250 05/00 A3049 RMK AO2 SLP325 T00500000 53014